Terminal Aerodrome Forecast
Issued by NWS Sioux Falls, SD

Home | Current Version | Previous Version | Graphics & Text | Print | Product List | Glossary Off
Versions: 1 2 3 4 5 6 7 8 9 10 11 12 13 14

000
FTUS43 KFSD 241720
TAFSUX
TAF
KSUX 241720Z 2418/2518 32006KT P6SM OVC110
     FM242000 32008KT P6SM VCSH OVC090
     FM242200 32010KT P6SM -RA OVC080
     FM250300 02012KT P6SM OVC040
     FM251300 01006KT P6SM SCT070=

USA.gov is the U.S. government's official web portal to all federal, state and local government web resources and services.